Time;durP1;ratioP1;P1;durP2;ratioP2;P2;SDS_P1;SDS_P2;PMS_P1;PMS_P2;Temp;Humidity;BMP_temperature;BMP_pressure;BME280_temperature;BME280_humidity;BME280_pressure;Samples;Min_cycle;Max_cycle;Signal;HPM_P1;HPM_P2
2021/10/17 00:01:41;;;;;;;6.60;3.40;;;;;;;;;;5079063;28;20041;-79
2021/10/17 00:04:07;;;;;;;15.10;4.05;;;;;;;;;;5075484;28;20036;-79
2021/10/17 00:06:32;;;;;;;9.20;2.67;;;;;;;;;;5076253;28;20482;-79
2021/10/17 00:08:58;;;;;;;9.55;2.55;;;;;;;;;;5075562;28;20075;-79
2021/10/17 00:11:24;;;;;;;10.00;2.60;;;;;;;;;;5076381;28;20028;-79
2021/10/17 00:13:50;;;;;;;10.68;2.35;;;;;;;;;;5083682;28;20036;-79
2021/10/17 00:16:16;;;;;;;9.95;3.17;;;;;;;;;;5095627;28;20684;-79
2021/10/17 00:18:42;;;;;;;19.98;3.90;;;;;;;;;;5095524;28;20024;-79
2021/10/17 00:21:07;;;;;;;16.50;3.67;;;;;;;;;;5095826;28;20428;-79
2021/10/17 00:23:33;;;;;;;15.15;4.13;;;;;;;;;;5095424;28;20115;-79
2021/10/17 00:25:58;;;;;;;17.90;3.92;;;;;;;;;;5095530;28;20579;-79
2021/10/17 00:28:24;;;;;;;17.50;4.55;;;;;;;;;;5094317;28;20020;-79
2021/10/17 00:30:52;;;;;;;9.00;3.47;;;;;;;;;;5077100;28;20028;-79
2021/10/17 00:33:20;;;;;;;17.02;4.03;;;;;;;;;;5096771;28;20039;-79
2021/10/17 00:35:45;;;;;;;15.52;4.45;;;;;;;;;;5099343;28;20123;-80
2021/10/17 00:38:11;;;;;;;19.00;4.22;;;;;;;;;;5097989;28;20524;-79
2021/10/17 00:40:36;;;;;;;19.25;4.45;;;;;;;;;;5099610;28;20048;-79
2021/10/17 00:43:02;;;;;;;15.75;4.03;;;;;;;;;;5101302;28;20486;-80
2021/10/17 00:45:30;;;;;;;16.92;4.22;;;;;;;;;;5099442;28;20474;-79
2021/10/17 00:48:00;;;;;;;16.52;3.75;;;;;;;;;;5100580;28;20486;-79
2021/10/17 00:50:27;;;;;;;17.02;3.97;;;;;;;;;;5097990;28;20054;-80
2021/10/17 00:52:52;;;;;;;23.30;4.43;;;;;;;;;;5100660;28;20081;-80
2021/10/17 00:55:20;;;;;;;18.00;4.53;;;;;;;;;;5101726;28;20587;-80
2021/10/17 00:57:46;;;;;;;16.80;4.35;;;;;;;;;;5101766;28;20048;-80
2021/10/17 01:00:13;;;;;;;22.58;5.40;;;;;;;;;;5099205;28;20131;-80
2021/10/17 01:02:38;;;;;;;15.68;4.18;;;;;;;;;;5101227;28;20084;-79
2021/10/17 01:05:05;;;;;;;23.52;4.43;;;;;;;;;;5100721;28;20036;-79
2021/10/17 01:07:30;;;;;;;30.75;4.57;;;;;;;;;;5098890;28;20456;-79
2021/10/17 01:09:56;;;;;;;25.02;4.50;;;;;;;;;;5098026;28;20032;-79
2021/10/17 01:12:25;;;;;;;24.15;4.20;;;;;;;;;;5098433;28;20120;-80
2021/10/17 01:14:51;;;;;;;20.50;4.68;;;;;;;;;;5100022;28;20040;-79
2021/10/17 01:17:16;;;;;;;17.65;4.22;;;;;;;;;;5098457;28;20038;-80
2021/10/17 01:19:46;;;;;;;26.10;4.95;;;;;;;;;;5097895;28;20363;-79
2021/10/17 01:22:18;;;;;;;11.48;4.45;;;;;;;;;;5096968;28;20439;-79
2021/10/17 01:24:43;;;;;;;12.18;4.20;;;;;;;;;;5097626;28;20130;-79
2021/10/17 01:27:09;;;;;;;14.23;5.03;;;;;;;;;;5097939;28;20078;-79
2021/10/17 01:29:34;;;;;;;9.23;4.13;;;;;;;;;;5097734;28;20031;-79
2021/10/17 01:32:00;;;;;;;37.85;4.55;;;;;;;;;;5097406;28;20473;-79
2021/10/17 01:34:26;;;;;;;14.10;4.53;;;;;;;;;;5096346;28;20132;-79
2021/10/17 01:36:52;;;;;;;8.80;4.43;;;;;;;;;;5096817;28;20552;-80
2021/10/17 01:39:21;;;;;;;8.57;3.53;;;;;;;;;;5087351;28;20486;-80
2021/10/17 01:41:47;;;;;;;18.80;3.72;;;;;;;;;;5078001;28;20037;-80
2021/10/17 01:44:29;;;;;;;19.95;3.90;;;;;;;;;;5077462;28;20413;-80
2021/10/17 01:46:56;;;;;;;20.25;4.75;;;;;;;;;;5079597;28;20413;-80
2021/10/17 01:49:26;;;;;;;12.68;3.65;;;;;;;;;;5078850;28;20102;-80
2021/10/17 01:51:53;;;;;;;11.93;3.80;;;;;;;;;;5078160;28;20036;-80
2021/10/17 01:54:19;;;;;;;15.40;3.67;;;;;;;;;;5078886;28;20032;-80
2021/10/17 01:56:45;;;;;;;6.93;3.65;;;;;;;;;;5078461;28;20040;-80
2021/10/17 01:59:12;;;;;;;9.93;3.85;;;;;;;;;;5077925;28;20036;-80
2021/10/17 02:01:48;;;;;;;13.07;3.75;;;;;;;;;;5077525;28;20037;-80
2021/10/17 02:04:14;;;;;;;13.30;3.50;;;;;;;;;;5077450;28;20039;-80
2021/10/17 02:06:40;;;;;;;15.45;3.90;;;;;;;;;;5078439;28;20406;-80
2021/10/17 02:09:06;;;;;;;7.47;4.03;;;;;;;;;;5078701;28;20028;-80
2021/10/17 02:11:31;;;;;;;12.73;3.50;;;;;;;;;;5081000;28;20041;-80
2021/10/17 02:13:58;;;;;;;10.88;3.85;;;;;;;;;;5079749;28;20032;-81
2021/10/17 02:16:24;;;;;;;5.57;3.40;;;;;;;;;;5079111;28;20359;-80
2021/10/17 02:18:50;;;;;;;19.60;3.80;;;;;;;;;;5087368;28;20024;-80
2021/10/17 02:21:16;;;;;;;11.32;3.85;;;;;;;;;;5097922;28;20074;-80
2021/10/17 02:23:43;;;;;;;8.25;3.13;;;;;;;;;;5097322;28;20038;-80
2021/10/17 02:26:08;;;;;;;5.20;2.97;;;;;;;;;;5098239;28;20040;-80
2021/10/17 02:28:56;;;;;;;4.63;2.95;;;;;;;;;;5098949;28;20040;-80
2021/10/17 02:31:23;;;;;;;4.72;2.88;;;;;;;;;;5097327;28;20035;-80
2021/10/17 02:33:53;;;;;;;11.38;3.17;;;;;;;;;;5097299;28;20036;-80
2021/10/17 02:36:18;;;;;;;4.93;3.20;;;;;;;;;;5097067;28;20058;-80
2021/10/17 02:38:43;;;;;;;5.28;3.05;;;;;;;;;;5097606;28;20028;-80
2021/10/17 02:41:09;;;;;;;5.13;2.92;;;;;;;;;;5096423;28;20458;-80
2021/10/17 02:43:35;;;;;;;4.78;2.92;;;;;;;;;;5096608;28;20039;-80
2021/10/17 02:46:01;;;;;;;5.43;3.38;;;;;;;;;;5096204;28;20043;-80
2021/10/17 02:48:27;;;;;;;12.77;3.15;;;;;;;;;;5096662;28;20045;-80
2021/10/17 02:50:55;;;;;;;6.82;3.53;;;;;;;;;;5096572;28;20115;-80
2021/10/17 02:53:20;;;;;;;31.80;3.78;;;;;;;;;;5096432;28;20067;-80
2021/10/17 02:55:46;;;;;;;8.07;3.45;;;;;;;;;;5095830;28;20031;-80
2021/10/17 02:58:11;;;;;;;13.05;4.18;;;;;;;;;;5096049;28;20047;-80
2021/10/17 03:00:37;;;;;;;18.38;3.30;;;;;;;;;;5078764;28;20397;-80
2021/10/17 03:03:05;;;;;;;7.75;3.72;;;;;;;;;;5095899;28;20062;-80
2021/10/17 03:05:36;;;;;;;4.57;3.40;;;;;;;;;;5095766;28;20376;-79
2021/10/17 03:08:01;;;;;;;12.95;4.00;;;;;;;;;;5095559;28;20028;-80
2021/10/17 03:10:26;;;;;;;4.85;3.45;;;;;;;;;;5094702;28;20036;-80
2021/10/17 03:12:53;;;;;;;19.00;3.25;;;;;;;;;;5095807;28;20027;-80
2021/10/17 03:15:20;;;;;;;7.97;3.28;;;;;;;;;;5078517;28;20355;-80
2021/10/17 03:17:46;;;;;;;15.45;3.83;;;;;;;;;;5096511;28;20034;-80
2021/10/17 03:20:12;;;;;;;11.82;3.03;;;;;;;;;;5096390;28;20031;-80
2021/10/17 03:22:42;;;;;;;21.98;3.67;;;;;;;;;;5099106;28;20032;-80
2021/10/17 03:25:08;;;;;;;5.93;4.00;;;;;;;;;;5099123;28;20084;-80
2021/10/17 03:27:34;;;;;;;7.97;3.70;;;;;;;;;;5098890;28;20477;-80
2021/10/17 03:30:00;;;;;;;17.52;3.80;;;;;;;;;;5098536;28;20046;-80
2021/10/17 03:32:25;;;;;;;6.53;3.80;;;;;;;;;;5097295;28;20043;-80
2021/10/17 03:34:50;;;;;;;28.73;3.70;;;;;;;;;;5096776;28;20024;-80
2021/10/17 03:37:17;;;;;;;46.72;4.25;;;;;;;;;;5097397;28;20042;-80
2021/10/17 03:39:44;;;;;;;34.08;4.10;;;;;;;;;;5096255;28;20575;-80
2021/10/17 03:42:09;;;;;;;11.95;3.83;;;;;;;;;;5096211;28;20032;-80
2021/10/17 03:44:37;;;;;;;10.10;3.95;;;;;;;;;;5095998;28;20042;-79
2021/10/17 03:47:03;;;;;;;4.80;3.72;;;;;;;;;;5095824;28;20122;-78
2021/10/17 03:49:29;;;;;;;48.38;4.70;;;;;;;;;;5095386;28;20032;-78
2021/10/17 03:51:55;;;;;;;5.43;3.67;;;;;;;;;;5095405;28;20039;-79
2021/10/17 03:54:20;;;;;;;9.38;3.83;;;;;;;;;;5094333;28;20074;-79
2021/10/17 03:56:46;;;;;;;30.95;4.50;;;;;;;;;;5094771;28;20028;-79
2021/10/17 03:59:17;;;;;;;6.97;4.28;;;;;;;;;;5095164;28;20496;-79
2021/10/17 04:01:45;;;;;;;8.80;4.13;;;;;;;;;;5096319;28;20055;-79
2021/10/17 04:04:10;;;;;;;9.38;4.78;;;;;;;;;;5097574;28;20040;-79
2021/10/17 04:06:37;;;;;;;13.80;4.28;;;;;;;;;;5095781;28;20027;-79
2021/10/17 04:09:08;;;;;;;9.15;4.03;;;;;;;;;;5095441;28;20111;-79
2021/10/17 04:11:34;;;;;;;18.50;4.40;;;;;;;;;;5095861;28;20027;-79
2021/10/17 04:14:00;;;;;;;14.55;4.47;;;;;;;;;;5097374;28;20028;-79
2021/10/17 04:16:26;;;;;;;30.45;4.85;;;;;;;;;;5095167;28;20073;-79
2021/10/17 04:18:52;;;;;;;6.40;4.57;;;;;;;;;;5095423;28;20023;-79
2021/10/17 04:21:18;;;;;;;7.28;4.57;;;;;;;;;;5079066;28;20081;-79
2021/10/17 04:23:43;;;;;;;7.15;4.15;;;;;;;;;;5095656;28;20435;-78
2021/10/17 04:26:09;;;;;;;14.65;4.68;;;;;;;;;;5095394;28;20039;-79
2021/10/17 04:28:40;;;;;;;29.40;4.57;;;;;;;;;;5106985;28;20032;-79
2021/10/17 04:31:06;;;;;;;19.42;4.45;;;;;;;;;;5115071;28;20027;-78
2021/10/17 04:33:32;;;;;;;8.65;5.55;;;;;;;;;;5114236;28;20427;-79
2021/10/17 04:35:57;;;;;;;13.32;4.10;;;;;;;;;;5115282;28;20036;-78
2021/10/17 04:38:22;;;;;;;16.08;4.75;;;;;;;;;;5115681;28;20036;-79
2021/10/17 04:40:48;;;;;;;8.13;4.95;;;;;;;;;;5114480;28;20072;-78
2021/10/17 04:43:13;;;;;;;15.98;4.45;;;;;;;;;;5114635;28;20038;-79
2021/10/17 04:45:42;;;;;;;19.55;4.63;;;;;;;;;;5116021;28;20055;-78
2021/10/17 04:48:08;;;;;;;12.90;4.35;;;;;;;;;;5114647;28;20035;-78
2021/10/17 04:50:33;;;;;;;9.13;3.97;;;;;;;;;;5114305;28;20085;-78
2021/10/17 04:52:58;;;;;;;13.20;4.90;;;;;;;;;;5116422;28;20035;-78
2021/10/17 04:55:24;;;;;;;7.72;4.68;;;;;;;;;;5114253;28;20114;-78
2021/10/17 04:57:49;;;;;;;12.23;5.00;;;;;;;;;;5114571;28;20107;-79
2021/10/17 05:00:16;;;;;;;10.23;5.20;;;;;;;;;;5114478;28;20479;-79
2021/10/17 05:02:53;;;;;;;12.13;4.97;;;;;;;;;;5114211;28;20079;-78
2021/10/17 05:05:20;;;;;;;16.85;4.70;;;;;;;;;;5097629;28;20076;-79
2021/10/17 05:07:46;;;;;;;11.80;5.05;;;;;;;;;;5096303;28;20119;-79
2021/10/17 05:10:11;;;;;;;8.40;5.07;;;;;;;;;;5096844;28;20040;-79
2021/10/17 05:12:37;;;;;;;8.15;4.47;;;;;;;;;;5095377;28;20024;-78
2021/10/17 05:15:04;;;;;;;10.52;5.00;;;;;;;;;;5093708;28;20039;-78
2021/10/17 05:17:30;;;;;;;7.88;5.35;;;;;;;;;;5094361;28;20028;-78
2021/10/17 05:19:55;;;;;;;8.20;5.10;;;;;;;;;;5096998;28;20130;-78
2021/10/17 05:22:21;;;;;;;10.02;4.60;;;;;;;;;;5099506;28;20031;-78
2021/10/17 05:24:46;;;;;;;7.40;4.43;;;;;;;;;;5098029;28;20489;-78
2021/10/17 05:27:12;;;;;;;10.30;4.53;;;;;;;;;;5080561;28;20035;-78
2021/10/17 05:29:37;;;;;;;7.70;4.63;;;;;;;;;;5097370;28;20040;-78
2021/10/17 05:32:04;;;;;;;5.45;3.97;;;;;;;;;;5080650;28;20119;-78
2021/10/17 05:34:30;;;;;;;7.35;4.45;;;;;;;;;;5098399;28;20063;-78
2021/10/17 05:36:55;;;;;;;6.47;4.03;;;;;;;;;;5097278;28;20501;-78
2021/10/17 05:39:21;;;;;;;6.82;4.53;;;;;;;;;;5096451;28;20428;-78
2021/10/17 05:41:46;;;;;;;7.07;4.18;;;;;;;;;;5108127;28;20036;-78
2021/10/17 05:44:12;;;;;;;7.68;3.97;;;;;;;;;;5099456;28;20039;-78
2021/10/17 05:46:37;;;;;;;4.85;4.03;;;;;;;;;;5115829;28;20092;-78
2021/10/17 05:49:03;;;;;;;5.57;3.83;;;;;;;;;;5117346;28;20106;-78
2021/10/17 05:51:28;;;;;;;4.93;3.72;;;;;;;;;;5116146;28;20031;-78
2021/10/17 05:53:54;;;;;;;8.10;4.30;;;;;;;;;;5116567;28;20031;-78
2021/10/17 05:56:19;;;;;;;9.73;3.92;;;;;;;;;;5115859;28;20114;-78
2021/10/17 05:58:44;;;;;;;7.28;4.10;;;;;;;;;;5116772;28;20821;-81
2021/10/17 06:01:10;;;;;;;6.57;3.95;;;;;;;;;;5117923;28;20035;-79
2021/10/17 06:03:41;;;;;;;7.43;4.10;;;;;;;;;;5118517;28;20114;-78
2021/10/17 06:06:27;;;;;;;11.90;5.40;;;;;;;;;;5119124;28;20118;-79
2021/10/17 06:09:01;;;;;;;10.18;4.57;;;;;;;;;;5118908;28;20031;-79
2021/10/17 06:11:26;;;;;;;10.98;5.40;;;;;;;;;;5108000;28;20077;-79
2021/10/17 06:13:52;;;;;;;9.93;5.35;;;;;;;;;;5089380;28;20078;-79
2021/10/17 06:16:17;;;;;;;9.60;5.38;;;;;;;;;;5079960;28;20037;-79
2021/10/17 06:18:43;;;;;;;8.77;4.50;;;;;;;;;;5077591;28;20028;-79
2021/10/17 06:21:08;;;;;;;7.57;4.85;;;;;;;;;;5077694;28;20494;-79
2021/10/17 06:23:34;;;;;;;7.45;4.97;;;;;;;;;;5077670;28;20040;-79
2021/10/17 06:26:00;;;;;;;7.68;4.85;;;;;;;;;;5077316;28;20063;-79
2021/10/17 06:28:26;;;;;;;7.07;5.00;;;;;;;;;;5060906;28;20482;-79
2021/10/17 06:30:52;;;;;;;10.82;4.88;;;;;;;;;;5077042;28;20045;-79
2021/10/17 06:33:18;;;;;;;7.80;4.78;;;;;;;;;;5077101;28;20093;-79
2021/10/17 06:35:43;;;;;;;10.88;4.90;;;;;;;;;;5077293;28;20036;-79
2021/10/17 06:38:09;;;;;;;8.23;4.40;;;;;;;;;;5077823;28;20032;-79
2021/10/17 06:40:36;;;;;;;5.10;3.75;;;;;;;;;;5077128;28;20143;-79
2021/10/17 06:43:04;;;;;;;5.85;4.18;;;;;;;;;;5079325;28;20111;-79
2021/10/17 06:45:49;;;;;;;5.28;3.63;;;;;;;;;;5094769;28;20545;-81
2021/10/17 06:48:17;;;;;;;5.68;4.40;;;;;;;;;;5097587;28;20437;-78
2021/10/17 06:50:42;;;;;;;7.47;4.00;;;;;;;;;;5098093;28;20032;-78
2021/10/17 06:53:08;;;;;;;7.05;3.50;;;;;;;;;;5098594;28;20051;-79
2021/10/17 06:55:33;;;;;;;6.40;4.03;;;;;;;;;;5099366;28;20516;-79
2021/10/17 06:58:00;;;;;;;8.57;5.25;;;;;;;;;;5112715;28;20031;-79
2021/10/17 07:00:28;;;;;;;4.97;3.72;;;;;;;;;;5117512;28;20034;-79
2021/10/17 07:02:54;;;;;;;4.35;3.78;;;;;;;;;;5117880;28;20032;-78
2021/10/17 07:05:21;;;;;;;5.13;3.63;;;;;;;;;;5117419;28;20439;-78
2021/10/17 07:07:46;;;;;;;6.88;4.30;;;;;;;;;;5118002;28;20044;-81
2021/10/17 07:10:11;;;;;;;5.68;3.88;;;;;;;;;;5100325;28;20073;-79
2021/10/17 07:12:57;;;;;;;5.53;4.20;;;;;;;;;;5120268;28;20039;-80
2021/10/17 07:15:29;;;;;;;9.55;4.53;;;;;;;;;;5119008;28;20027;-81
2021/10/17 07:17:56;;;;;;;8.20;4.57;;;;;;;;;;5079886;28;20028;-79
2021/10/17 07:20:22;;;;;;;5.90;4.70;;;;;;;;;;5079954;28;20051;-79
2021/10/17 07:22:48;;;;;;;5.70;4.10;;;;;;;;;;5080867;28;20079;-79
2021/10/17 07:25:13;;;;;;;6.78;4.32;;;;;;;;;;5098159;28;20039;-79
2021/10/17 07:27:39;;;;;;;5.70;3.90;;;;;;;;;;5097635;28;20043;-79
2021/10/17 07:30:05;;;;;;;5.18;3.92;;;;;;;;;;5098932;28;20039;-79
2021/10/17 07:32:32;;;;;;;4.78;3.72;;;;;;;;;;5096715;28;20024;-79
2021/10/17 07:34:58;;;;;;;5.13;3.75;;;;;;;;;;5079900;28;20028;-79
2021/10/17 07:37:30;;;;;;;5.60;3.95;;;;;;;;;;5096638;28;20054;-79
2021/10/17 07:39:56;;;;;;;7.53;4.28;;;;;;;;;;5095881;28;20478;-79
2021/10/17 07:42:22;;;;;;;5.70;4.22;;;;;;;;;;5096818;28;20035;-79
2021/10/17 07:44:51;;;;;;;9.90;4.70;;;;;;;;;;5097800;28;20039;-79
2021/10/17 07:47:20;;;;;;;5.85;4.50;;;;;;;;;;5096850;28;20086;-78
2021/10/17 07:50:06;;;;;;;5.65;4.30;;;;;;;;;;5096552;28;20560;-81
2021/10/17 07:52:36;;;;;;;7.35;4.50;;;;;;;;;;5096512;28;20027;-78
2021/10/17 07:55:10;;;;;;;8.73;4.63;;;;;;;;;;5098629;28;20028;-77
2021/10/17 07:57:51;;;;;;;8.25;5.15;;;;;;;;;;5097758;28;20031;-79
2021/10/17 08:00:18;;;;;;;6.70;4.65;;;;;;;;;;5094841;28;20028;-76
2021/10/17 08:02:51;;;;;;;6.53;4.97;;;;;;;;;;5093331;28;20043;-79
2021/10/17 08:05:21;;;;;;;5.40;4.10;;;;;;;;;;5095655;28;20122;-77
2021/10/17 08:07:46;;;;;;;6.22;4.13;;;;;;;;;;5097695;28;20446;-78
2021/10/17 08:10:13;;;;;;;8.88;4.07;;;;;;;;;;5096640;28;20043;-77
2021/10/17 08:12:39;;;;;;;5.85;4.22;;;;;;;;;;5100134;28;20036;-79
2021/10/17 08:15:07;;;;;;;10.07;4.00;;;;;;;;;;5100804;28;20065;-81
2021/10/17 08:17:33;;;;;;;5.15;4.10;;;;;;;;;;5119124;28;20031;-79
2021/10/17 08:20:07;;;;;;;6.20;4.57;;;;;;;;;;5114974;28;20031;-77
2021/10/17 08:22:33;;;;;;;7.03;4.13;;;;;;;;;;5112472;28;20122;-76
2021/10/17 08:25:05;;;;;;;8.95;3.88;;;;;;;;;;5116503;28;20500;-77
2021/10/17 08:27:32;;;;;;;5.78;3.97;;;;;;;;;;5116850;28;20058;-78
2021/10/17 08:29:57;;;;;;;8.75;4.05;;;;;;;;;;5113491;28;20027;-76
2021/10/17 08:32:24;;;;;;;6.45;4.25;;;;;;;;;;5111768;28;20046;-74
2021/10/17 08:34:49;;;;;;;9.02;3.42;;;;;;;;;;5114316;28;20469;-78
2021/10/17 08:37:15;;;;;;;9.68;4.00;;;;;;;;;;5117573;28;20074;-78
2021/10/17 08:40:01;;;;;;;8.40;4.05;;;;;;;;;;5113690;28;20071;-77
2021/10/17 08:42:45;;;;;;;7.43;4.30;;;;;;;;;;5115488;28;20046;-77
2021/10/17 08:45:22;;;;;;;7.60;4.35;;;;;;;;;;5093021;28;20052;-77
2021/10/17 08:47:48;;;;;;;6.43;3.80;;;;;;;;;;5073094;28;20473;-77
2021/10/17 08:50:16;;;;;;;8.75;4.53;;;;;;;;;;5071995;28;20033;-77
2021/10/17 08:52:44;;;;;;;6.78;3.88;;;;;;;;;;5072109;28;20064;-77
2021/10/17 08:55:12;;;;;;;5.65;3.63;;;;;;;;;;5075972;28;20031;-77
2021/10/17 08:57:38;;;;;;;6.03;3.72;;;;;;;;;;5075537;28;20177;-77
2021/10/17 09:00:24;;;;;;;10.35;5.15;;;;;;;;;;5075426;28;20035;-77
2021/10/17 09:02:49;;;;;;;6.05;4.00;;;;;;;;;;5075063;28;20040;-76
2021/10/17 09:05:15;;;;;;;8.35;3.83;;;;;;;;;;5075154;28;20036;-77
2021/10/17 09:07:52;;;;;;;8.90;3.97;;;;;;;;;;5075403;28;20028;-76
2021/10/17 09:10:30;;;;;;;5.95;3.58;;;;;;;;;;5075115;28;20040;-76
2021/10/17 09:13:16;;;;;;;10.27;4.60;;;;;;;;;;5075079;28;20089;-74
2021/10/17 09:15:43;;;;;;;6.22;3.70;;;;;;;;;;5086230;28;20044;-76
2021/10/17 09:18:08;;;;;;;8.05;4.53;;;;;;;;;;5096212;28;20032;-77
2021/10/17 09:20:47;;;;;;;8.15;3.75;;;;;;;;;;5096503;28;20028;-76
2021/10/17 09:23:29;;;;;;;9.60;3.92;;;;;;;;;;5095226;28;20036;-75
2021/10/17 09:25:57;;;;;;;8.63;3.95;;;;;;;;;;5095791;28;20035;-75
2021/10/17 09:28:27;;;;;;;7.90;3.80;;;;;;;;;;5095637;28;20039;-75
2021/10/17 09:30:57;;;;;;;13.50;4.43;;;;;;;;;;5095596;28;20529;-77
2021/10/17 09:33:22;;;;;;;9.85;4.63;;;;;;;;;;5096302;28;20038;-75
2021/10/17 09:35:48;;;;;;;8.30;3.70;;;;;;;;;;5095391;28;20020;-77
2021/10/17 09:38:41;;;;;;;6.97;3.83;;;;;;;;;;5098491;28;20050;-77
2021/10/17 09:41:18;;;;;;;7.45;3.40;;;;;;;;;;5114451;28;20497;-77
2021/10/17 09:43:58;;;;;;;8.15;4.57;;;;;;;;;;5116291;28;20459;-79
2021/10/17 09:46:57;;;;;;;7.38;4.20;;;;;;;;;;5120611;28;20088;-77
2021/10/17 09:49:23;;;;;;;8.65;4.00;;;;;;;;;;5116066;27;20039;-77
2021/10/17 09:51:48;;;;;;;6.65;3.15;;;;;;;;;;5114555;28;20114;-76
2021/10/17 09:54:19;;;;;;;7.15;3.95;;;;;;;;;;5115427;28;20439;-75
2021/10/17 09:56:45;;;;;;;6.97;3.95;;;;;;;;;;5115462;28;20040;-77
2021/10/17 09:59:13;;;;;;;11.52;4.10;;;;;;;;;;5119761;28;20473;-78
2021/10/17 10:01:41;;;;;;;11.77;3.97;;;;;;;;;;5119060;28;20123;-78
2021/10/17 10:04:12;;;;;;;8.98;4.18;;;;;;;;;;5117440;28;20031;-78
2021/10/17 10:06:37;;;;;;;9.63;4.47;;;;;;;;;;5118368;28;20031;-78
2021/10/17 10:09:09;;;;;;;10.63;4.38;;;;;;;;;;5110691;28;20039;-78
2021/10/17 10:11:37;;;;;;;10.10;4.22;;;;;;;;;;5095899;28;20123;-77
2021/10/17 10:14:04;;;;;;;17.92;4.13;;;;;;;;;;5094610;28;20092;-77
2021/10/17 10:16:30;;;;;;;8.48;4.30;;;;;;;;;;5097254;28;20092;-78
2021/10/17 10:19:01;;;;;;;10.07;3.80;;;;;;;;;;5094839;28;20036;-76
2021/10/17 10:21:28;;;;;;;7.28;3.97;;;;;;;;;;5077159;28;20051;-76
2021/10/17 10:23:55;;;;;;;9.40;3.47;;;;;;;;;;5094922;28;20039;-76
2021/10/17 10:26:27;;;;;;;9.52;3.95;;;;;;;;;;5094539;28;20502;-76
2021/10/17 10:28:56;;;;;;;11.20;4.30;;;;;;;;;;5095143;28;20031;-76
2021/10/17 10:31:41;;;;;;;8.30;4.25;;;;;;;;;;5094646;28;20095;-76
2021/10/17 10:34:22;;;;;;;9.05;4.07;;;;;;;;;;5093586;28;20035;-76
2021/10/17 10:36:53;;;;;;;11.13;3.90;;;;;;;;;;5094399;28;20028;-76
2021/10/17 10:39:23;;;;;;;10.10;4.35;;;;;;;;;;5095029;28;20116;-76
2021/10/17 10:41:49;;;;;;;10.10;4.20;;;;;;;;;;5094697;28;20028;-76
2021/10/17 10:44:49;;;;;;;16.40;4.32;;;;;;;;;;5095040;28;20373;-75
2021/10/17 10:47:27;;;;;;;15.45;5.57;;;;;;;;;;5092458;28;20188;-75
2021/10/17 10:49:53;;;;;;;;;;;;;;;;;;5094976;28;20040;-74
2021/10/17 10:52:24;;;;;;;8.75;4.13;;;;;;;;;;5093775;28;19918;-76
2021/10/17 10:54:50;;;;;;;12.68;4.22;;;;;;;;;;5093548;28;20051;-77
2021/10/17 10:57:20;;;;;;;8.13;3.83;;;;;;;;;;5093451;28;20042;-75
2021/10/17 10:59:59;;;;;;;10.20;3.70;;;;;;;;;;5093716;28;20127;-75
2021/10/17 11:02:26;;;;;;;9.18;3.92;;;;;;;;;;5091757;28;20054;-76
2021/10/17 11:04:51;;;;;;;6.45;4.20;;;;;;;;;;5093564;28;20040;-77
2021/10/17 11:07:20;;;;;;;20.42;4.10;;;;;;;;;;5093441;28;20032;-76
2021/10/17 11:09:48;;;;;;;7.00;3.70;;;;;;;;;;5093503;28;20046;-75
2021/10/17 11:12:38;;;;;;;12.73;4.55;;;;;;;;;;5093290;28;20381;-75
2021/10/17 11:15:04;;;;;;;12.73;4.30;;;;;;;;;;5097548;28;20115;-77
2021/10/17 11:17:29;;;;;;;9.15;4.13;;;;;;;;;;5092141;28;20498;-77
2021/10/17 11:19:55;;;;;;;11.38;5.05;;;;;;;;;;5093512;28;20039;-76
2021/10/17 11:22:21;;;;;;;18.70;5.25;;;;;;;;;;5095719;28;20028;-76
2021/10/17 11:24:53;;;;;;;8.57;4.28;;;;;;;;;;5092373;28;20476;-76
2021/10/17 11:27:18;;;;;;;9.27;4.00;;;;;;;;;;5095227;28;20042;-78
2021/10/17 11:29:45;;;;;;;8.50;3.65;;;;;;;;;;5094667;28;20429;-77
2021/10/17 11:32:16;;;;;;;16.83;4.82;;;;;;;;;;5098115;28;20024;-78
2021/10/17 11:35:04;;;;;;;13.40;4.38;;;;;;;;;;5098251;28;20039;-75
2021/10/17 11:37:31;;;;;;;8.93;4.25;;;;;;;;;;5094436;28;20028;-78
2021/10/17 11:40:03;;;;;;;7.18;3.58;;;;;;;;;;5090212;28;20161;-75
2021/10/17 11:42:41;;;;;;;7.38;4.10;;;;;;;;;;5092439;28;20032;-76
2021/10/17 11:45:07;;;;;;;15.18;4.38;;;;;;;;;;5092748;28;20505;-75
2021/10/17 11:47:32;;;;;;;10.65;3.58;;;;;;;;;;5092493;28;20032;-75
2021/10/17 11:50:00;;;;;;;10.88;3.90;;;;;;;;;;5092428;28;20036;-75
2021/10/17 11:52:25;;;;;;;9.05;3.92;;;;;;;;;;5080151;28;20036;-77
2021/10/17 11:54:51;;;;;;;12.30;4.07;;;;;;;;;;5079082;28;20427;-80
2021/10/17 11:57:27;;;;;;;9.70;4.13;;;;;;;;;;5084503;28;20044;-79
2021/10/17 12:00:11;;;;;;;13.70;4.40;;;;;;;;;;5073921;28;20046;-75
2021/10/17 12:02:39;;;;;;;7.90;3.45;;;;;;;;;;5072183;28;20190;-75
2021/10/17 12:05:17;;;;;;;12.25;3.70;;;;;;;;;;5075944;28;20115;-76
2021/10/17 12:07:43;;;;;;;10.68;3.38;;;;;;;;;;5082789;28;20082;-76
2021/10/17 12:10:09;;;;;;;9.30;3.80;;;;;;;;;;5086995;28;20032;-76
2021/10/17 12:12:38;;;;;;;6.88;2.88;;;;;;;;;;5089640;28;20028;-78
2021/10/17 12:15:07;;;;;;;11.40;3.30;;;;;;;;;;5091266;28;20049;-76
2021/10/17 12:17:34;;;;;;;9.55;3.78;;;;;;;;;;5083456;28;20032;-75
2021/10/17 12:20:01;;;;;;;11.25;3.78;;;;;;;;;;5089284;28;20116;-74
2021/10/17 12:22:27;;;;;;;8.23;3.60;;;;;;;;;;5077478;28;20444;-76
2021/10/17 12:25:00;;;;;;;12.35;3.58;;;;;;;;;;5071861;28;20481;-76
2021/10/17 12:27:33;;;;;;;7.43;3.67;;;;;;;;;;5071917;28;20083;-75
2021/10/17 12:30:04;;;;;;;9.73;3.35;;;;;;;;;;5090018;28;20044;-76
2021/10/17 12:32:54;;;;;;;11.13;3.67;;;;;;;;;;5075714;28;20029;-76
2021/10/17 12:35:19;;;;;;;12.25;3.75;;;;;;;;;;5085570;28;20371;-76
2021/10/17 12:37:45;;;;;;;9.10;3.47;;;;;;;;;;5093549;28;20055;-77
2021/10/17 12:40:10;;;;;;;7.22;3.38;;;;;;;;;;5087802;28;20102;-75
2021/10/17 12:42:46;;;;;;;11.63;3.65;;;;;;;;;;5083969;28;20035;-76
2021/10/17 12:45:13;;;;;;;9.82;3.67;;;;;;;;;;5076621;28;20043;-75
2021/10/17 12:47:40;;;;;;;9.52;3.13;;;;;;;;;;5086415;28;20028;-76
2021/10/17 12:50:14;;;;;;;8.50;3.03;;;;;;;;;;5075600;28;20130;-76
2021/10/17 12:52:40;;;;;;;11.65;2.90;;;;;;;;;;5083282;28;20032;-77
2021/10/17 12:55:05;;;;;;;10.05;2.83;;;;;;;;;;5077871;28;20039;-75
2021/10/17 12:57:31;;;;;;;6.90;2.75;;;;;;;;;;5085400;28;20033;-79
2021/10/17 12:59:58;;;;;;;9.35;3.20;;;;;;;;;;5078005;28;20044;-76
2021/10/17 13:02:35;;;;;;;10.70;2.40;;;;;;;;;;5077389;28;20050;-75
2021/10/17 13:05:01;;;;;;;7.45;2.60;;;;;;;;;;5078138;28;20473;-74
2021/10/17 13:07:31;;;;;;;6.88;2.65;;;;;;;;;;5082204;28;20020;-74
2021/10/17 13:10:08;;;;;;;12.93;2.83;;;;;;;;;;5094640;28;20024;-74
2021/10/17 13:12:45;;;;;;;5.78;2.55;;;;;;;;;;5095254;28;20039;-75
2021/10/17 13:15:14;;;;;;;6.43;2.15;;;;;;;;;;5095231;28;20039;-74
2021/10/17 13:17:41;;;;;;;11.00;2.70;;;;;;;;;;5095427;28;20036;-74
2021/10/17 13:20:10;;;;;;;8.82;3.05;;;;;;;;;;5096304;28;20061;-74
2021/10/17 13:22:37;;;;;;;7.65;2.58;;;;;;;;;;5096250;28;20177;-74
2021/10/17 13:25:04;;;;;;;12.00;3.47;;;;;;;;;;5096225;28;20035;-74
2021/10/17 13:27:30;;;;;;;14.07;3.35;;;;;;;;;;5095956;28;20044;-75
2021/10/17 13:29:56;;;;;;;7.63;2.80;;;;;;;;;;5095876;28;20036;-74
2021/10/17 13:32:27;;;;;;;8.65;3.05;;;;;;;;;;5096283;28;20042;-74
2021/10/17 13:34:54;;;;;;;11.60;3.25;;;;;;;;;;5096311;28;20032;-74
2021/10/17 13:37:19;;;;;;;7.57;2.65;;;;;;;;;;5096173;28;20040;-74
2021/10/17 13:39:45;;;;;;;14.20;3.10;;;;;;;;;;5094592;28;20052;-74
2021/10/17 13:42:10;;;;;;;8.60;2.72;;;;;;;;;;5095858;28;20036;-74
2021/10/17 13:44:36;;;;;;;6.50;2.67;;;;;;;;;;5095561;28;20040;-74
2021/10/17 13:47:01;;;;;;;7.93;2.53;;;;;;;;;;5095587;28;20039;-74
2021/10/17 13:49:27;;;;;;;8.93;2.58;;;;;;;;;;5095447;28;20043;-74
2021/10/17 13:51:53;;;;;;;6.40;2.45;;;;;;;;;;5094457;28;20036;-74
2021/10/17 13:54:19;;;;;;;11.90;2.72;;;;;;;;;;5094518;28;20085;-74
2021/10/17 13:56:46;;;;;;;4.75;2.08;;;;;;;;;;5095361;28;20045;-74
2021/10/17 13:59:12;;;;;;;8.40;2.35;;;;;;;;;;5095726;28;20032;-74
2021/10/17 14:01:38;;;;;;;8.88;2.45;;;;;;;;;;5095380;28;20036;-75
2021/10/17 14:04:04;;;;;;;7.93;2.38;;;;;;;;;;5094025;28;20480;-74
2021/10/17 14:06:30;;;;;;;5.20;2.67;;;;;;;;;;5095537;28;20107;-74
2021/10/17 14:08:55;;;;;;;10.95;2.70;;;;;;;;;;5095220;28;20482;-74
2021/10/17 14:11:20;;;;;;;7.85;2.50;;;;;;;;;;5095153;28;20028;-75
2021/10/17 14:13:46;;;;;;;7.90;2.55;;;;;;;;;;5095448;28;20036;-72
2021/10/17 14:16:12;;;;;;;14.35;3.40;;;;;;;;;;5095410;28;20400;-74
2021/10/17 14:18:39;;;;;;;8.40;3.10;;;;;;;;;;5095239;28;20034;-74
2021/10/17 14:21:05;;;;;;;6.55;2.63;;;;;;;;;;5095053;28;20039;-75
2021/10/17 14:23:31;;;;;;;7.03;2.55;;;;;;;;;;5094102;28;20039;-75
2021/10/17 14:25:56;;;;;;;13.25;3.22;;;;;;;;;;5094990;28;20036;-74
2021/10/17 14:28:22;;;;;;;6.57;2.40;;;;;;;;;;5095128;28;20111;-75
2021/10/17 14:30:47;;;;;;;7.10;2.60;;;;;;;;;;5095046;28;20547;-75
2021/10/17 14:33:12;;;;;;;9.73;2.83;;;;;;;;;;5095029;28;20035;-75
2021/10/17 14:35:38;;;;;;;8.75;2.83;;;;;;;;;;5094923;28;20032;-75
2021/10/17 14:38:04;;;;;;;7.60;2.72;;;;;;;;;;5094429;28;20096;-75
2021/10/17 14:40:29;;;;;;;9.98;2.42;;;;;;;;;;5093510;28;20055;-75
2021/10/17 14:42:55;;;;;;;7.22;2.30;;;;;;;;;;5094931;28;20028;-75
2021/10/17 14:45:21;;;;;;;6.35;2.90;;;;;;;;;;5093542;28;20044;-73